Montague, Massachusetts
Current Conditions -  °F | °C
As of 9:52 AM on Friday 24 Oct 2014 (Local Time) from KORE Reporting Station
Overcast Overcast  
Wind Chill: 42°   Ceiling: 1900
Heat Index: 46°   Visibility: 10mi
Dew Point: 42°   Wind: 8mph
Humidity: 86%   Direction: 330°NNW
Pressure: 29.77"   Gusts: NA
Location:  42.54°N, 72.54°W
Report Text: KORE 241352Z AUTO 33007KT 10SM OVC019 08/06 A2977 RMK AO2 SLP082 T00780056
Loading
Personal Weather Stations






























Interactive Weather Map
Tropical Storm Tracking
New forecast layout! Learn more

10-Day Weather Forecast

Advertisements
Track Severe Weather on mobile